Terminal Aerodrome Forecast
Issued by NWS

Home | Current Version | Previous Version | Text Only | Print | Product List | Glossary On
Versions: 1 2 3 4 5 6 7 8 9 10 11 12 13 14 15 16 17 18
000
FTUS44 KCRP 270500
TAFALI
TAF
KALI 270525Z 2706/2806 04013KT P6SM FEW025
     FM271000 03012KT P6SM BKN020
     FM271800 05015G22KT P6SM OVC015
     FM272000 07017G25KT P6SM OVC012
     FM280100 07014KT P6SM VCSH OVC012=

USA.gov is the U.S. government's official web portal to all federal, state and local government web resources and services.